Time;durP1;ratioP1;P1;durP2;ratioP2;P2;SDS_P1;SDS_P2;PMS_P1;PMS_P2;Temp;Humidity;BMP_temperature;BMP_pressure;BME280_temperature;BME280_humidity;BME280_pressure;Samples;Min_cycle;Max_cycle;Signal;HPM_P1;HPM_P2
2023/05/27 00:00:06;;;;;;;16.13;7.57;;;18.40;99.90;;;;;;5034467;28;20382;-75
2023/05/27 00:02:32;;;;;;;12.38;7.25;;;18.30;99.90;;;;;;5033063;28;20034;-74
2023/05/27 00:04:58;;;;;;;13.00;7.25;;;18.30;99.90;;;;;;5033592;28;20382;-75
2023/05/27 00:07:25;;;;;;;17.77;7.55;;;18.30;99.90;;;;;;5033194;28;20382;-74
2023/05/27 00:09:51;;;;;;;13.55;7.07;;;18.30;99.90;;;;;;5033055;28;20038;-74
2023/05/27 00:12:17;;;;;;;13.82;6.20;;;18.20;99.90;;;;;;5032712;28;20032;-74
2023/05/27 00:14:44;;;;;;;11.57;7.25;;;18.20;99.90;;;;;;5034492;28;20437;-75
2023/05/27 00:17:13;;;;;;;15.25;7.40;;;18.20;99.90;;;;;;5032601;28;20040;-74
2023/05/27 00:19:42;;;;;;;15.98;7.00;;;18.20;99.90;;;;;;5032754;28;20046;-74
2023/05/27 00:22:08;;;;;;;20.88;7.78;;;18.10;99.90;;;;;;5032960;28;20030;-75
2023/05/27 00:24:39;;;;;;;13.07;7.10;;;18.10;99.90;;;;;;5034545;28;20041;-75
2023/05/27 00:27:06;;;;;;;13.40;6.68;;;18.10;99.90;;;;;;5032318;28;20048;-75
2023/05/27 00:29:32;;;;;;;15.95;7.13;;;18.20;99.90;;;;;;5033182;28;20470;-74
2023/05/27 00:32:00;;;;;;;13.68;6.95;;;18.20;99.90;;;;;;5032119;28;20036;-74
2023/05/27 00:34:26;;;;;;;16.33;7.50;;;18.00;99.90;;;;;;5032671;28;20463;-76
2023/05/27 00:36:52;;;;;;;13.40;6.70;;;17.90;99.90;;;;;;5033774;28;20033;-75
2023/05/27 00:39:18;;;;;;;14.52;7.13;;;17.90;99.90;;;;;;5032828;28;20100;-74
2023/05/27 00:41:49;;;;;;;13.00;6.93;;;17.90;99.90;;;;;;5033473;28;20042;-75
2023/05/27 00:44:15;;;;;;;11.73;6.93;;;17.80;99.90;;;;;;5032762;28;20374;-75
2023/05/27 00:46:41;;;;;;;14.80;7.25;;;17.80;99.90;;;;;;5032492;28;20056;-74
2023/05/27 00:49:07;;;;;;;18.05;7.38;;;17.70;99.90;;;;;;5052787;28;20459;-75
2023/05/27 00:51:33;;;;;;;13.80;6.60;;;17.80;99.90;;;;;;5040334;28;20501;-75
2023/05/27 00:53:59;;;;;;;16.17;6.65;;;17.80;99.90;;;;;;5033763;28;20032;-74
2023/05/27 00:56:26;;;;;;;12.80;7.38;;;17.70;99.90;;;;;;5031970;28;20470;-75
2023/05/27 00:58:52;;;;;;;13.18;7.28;;;17.60;99.90;;;;;;5032268;28;20049;-74
2023/05/27 01:01:19;;;;;;;16.38;7.40;;;17.60;99.90;;;;;;5031317;28;20041;-74
2023/05/27 01:03:46;;;;;;;12.23;7.03;;;17.50;99.90;;;;;;5033664;28;20493;-74
2023/05/27 01:06:25;;;;;;;18.10;7.35;;;17.60;99.90;;;;;;5015569;28;20044;-75
2023/05/27 01:08:59;;;;;;;15.77;7.28;;;17.60;99.90;;;;;;5033032;28;20028;-75
2023/05/27 01:11:28;;;;;;;13.70;6.93;;;17.60;99.90;;;;;;5015159;28;20045;-74
2023/05/27 01:14:00;;;;;;;16.00;7.57;;;17.50;99.90;;;;;;5015788;28;20048;-75
2023/05/27 01:16:26;;;;;;;15.25;7.65;;;17.50;99.90;;;;;;5014862;28;20037;-75
2023/05/27 01:18:53;;;;;;;14.18;7.50;;;17.50;99.90;;;;;;5032071;28;20048;-75
2023/05/27 01:21:21;;;;;;;15.40;7.10;;;17.50;99.90;;;;;;5031825;28;20040;-74
2023/05/27 01:23:47;;;;;;;17.63;7.50;;;17.50;99.90;;;;;;5032188;28;20041;-75
2023/05/27 01:26:13;;;;;;;12.00;7.13;;;17.50;99.90;;;;;;5014714;28;20045;-75
2023/05/27 01:28:40;;;;;;;15.25;7.35;;;17.40;99.90;;;;;;5032077;28;20025;-74
2023/05/27 01:31:12;;;;;;;13.73;7.38;;;17.30;99.90;;;;;;5031161;28;20045;-75
2023/05/27 01:33:40;;;;;;;16.52;7.15;;;17.20;99.90;;;;;;5032414;28;20036;-74
2023/05/27 01:36:14;;;;;;;15.95;7.38;;;17.10;99.90;;;;;;5015418;28;20033;-74
2023/05/27 01:38:40;;;;;;;14.00;7.70;;;17.10;99.90;;;;;;5031695;28;20049;-74
2023/05/27 01:41:06;;;;;;;17.90;8.07;;;17.10;99.90;;;;;;5031047;28;20037;-75
2023/05/27 01:43:33;;;;;;;18.27;8.07;;;17.10;99.90;;;;;;5015166;28;20037;-74
2023/05/27 01:45:59;;;;;;;16.85;7.55;;;17.00;99.90;;;;;;5030923;28;20038;-74
2023/05/27 01:48:25;;;;;;;15.32;7.88;;;17.00;99.90;;;;;;5046496;28;20036;-74
2023/05/27 01:50:51;;;;;;;13.73;8.45;;;16.90;99.90;;;;;;5044670;28;20042;-75
2023/05/27 01:53:17;;;;;;;15.00;8.43;;;17.00;99.90;;;;;;5014911;28;20041;-75
2023/05/27 01:55:43;;;;;;;15.10;8.38;;;17.10;99.90;;;;;;5030955;28;20037;-75
2023/05/27 01:58:09;;;;;;;13.52;8.57;;;17.10;99.90;;;;;;5032701;28;20410;-74
2023/05/27 02:00:35;;;;;;;16.40;8.30;;;17.00;99.90;;;;;;5031267;28;20032;-75
2023/05/27 02:03:02;;;;;;;13.13;8.82;;;16.90;99.90;;;;;;5028005;28;20033;-75
2023/05/27 02:05:28;;;;;;;17.83;9.30;;;16.80;99.90;;;;;;5023746;28;20037;-75
2023/05/27 02:07:55;;;;;;;17.95;8.90;;;16.70;99.90;;;;;;5022119;28;20041;-75
2023/05/27 02:10:21;;;;;;;17.20;9.07;;;16.70;99.90;;;;;;5045826;28;20490;-75
2023/05/27 02:12:50;;;;;;;18.10;10.65;;;16.70;99.90;;;;;;5029876;28;20375;-75
2023/05/27 02:15:16;;;;;;;15.80;9.30;;;16.70;99.90;;;;;;5030373;28;20021;-74
2023/05/27 02:17:44;;;;;;;14.35;9.93;;;16.60;99.90;;;;;;5031010;28;20026;-75
2023/05/27 02:20:11;;;;;;;19.00;10.45;;;16.50;99.90;;;;;;5030676;28;20033;-75
2023/05/27 02:22:37;;;;;;;19.85;10.27;;;16.60;99.90;;;;;;5013520;28;20037;-74
2023/05/27 02:25:03;;;;;;;18.45;10.27;;;16.50;99.90;;;;;;5030612;28;20034;-75
2023/05/27 02:27:29;;;;;;;19.17;9.93;;;16.40;99.90;;;;;;5028988;28;20453;-74
2023/05/27 02:29:55;;;;;;;20.95;9.85;;;16.40;99.90;;;;;;5029573;28;20033;-75
2023/05/27 02:32:21;;;;;;;18.33;9.68;;;16.50;99.90;;;;;;5030202;28;20542;-75
2023/05/27 02:34:47;;;;;;;18.25;9.57;;;16.40;99.90;;;;;;5030938;28;20036;-74
2023/05/27 02:37:14;;;;;;;18.67;9.95;;;16.40;99.90;;;;;;5030904;28;20462;-74
2023/05/27 02:39:40;;;;;;;20.95;9.85;;;16.40;99.90;;;;;;5031955;28;20041;-75
2023/05/27 02:42:06;;;;;;;16.20;8.65;;;16.40;99.90;;;;;;5032171;28;20037;-75
2023/05/27 02:44:32;;;;;;;17.17;8.95;;;16.40;99.90;;;;;;5032084;28;20489;-74
2023/05/27 02:46:58;;;;;;;17.35;8.98;;;16.40;99.90;;;;;;5033170;28;20049;-75
2023/05/27 02:49:25;;;;;;;16.83;9.30;;;16.40;99.90;;;;;;5050745;28;20615;-75
2023/05/27 02:51:51;;;;;;;16.77;9.02;;;16.30;99.90;;;;;;5035875;28;20037;-75
2023/05/27 02:54:17;;;;;;;14.77;8.07;;;16.30;99.90;;;;;;5032034;28;20482;-75
2023/05/27 02:56:43;;;;;;;20.52;8.93;;;16.30;99.90;;;;;;5030443;28;20033;-75
2023/05/27 02:59:09;;;;;;;15.68;8.70;;;16.30;99.90;;;;;;5032066;28;20505;-75
2023/05/27 03:01:35;;;;;;;19.67;8.82;;;16.30;99.90;;;;;;5029941;28;20418;-75
2023/05/27 03:04:02;;;;;;;17.92;8.73;;;16.40;99.90;;;;;;5014133;28;20044;-75
2023/05/27 03:06:28;;;;;;;20.80;8.95;;;16.20;99.90;;;;;;5030030;28;20363;-74
2023/05/27 03:08:54;;;;;;;17.17;8.43;;;16.10;99.90;;;;;;5030870;28;20035;-75
2023/05/27 03:11:21;;;;;;;16.25;7.88;;;16.10;99.90;;;;;;5030102;28;20470;-75
2023/05/27 03:13:47;;;;;;;18.95;7.90;;;16.10;99.90;;;;;;5031965;28;20032;-74
2023/05/27 03:16:13;;;;;;;19.58;8.57;;;16.00;99.90;;;;;;5029814;28;20033;-75
2023/05/27 03:18:39;;;;;;;15.20;8.52;;;16.00;99.90;;;;;;5031810;28;20367;-74
2023/05/27 03:21:06;;;;;;;14.40;7.25;;;15.90;99.90;;;;;;5029833;28;20040;-75
2023/05/27 03:23:32;;;;;;;16.38;7.68;;;15.90;99.90;;;;;;5032295;28;20048;-75
2023/05/27 03:25:58;;;;;;;15.43;8.18;;;15.80;99.90;;;;;;5035222;28;20029;-74
2023/05/27 03:28:24;;;;;;;17.95;7.80;;;15.80;99.90;;;;;;5034179;28;20034;-75
2023/05/27 03:30:55;;;;;;;21.55;8.20;;;15.80;99.90;;;;;;5017007;28;20033;-75
2023/05/27 03:33:23;;;;;;;18.13;7.78;;;15.70;99.90;;;;;;5018229;28;20046;-74
2023/05/27 03:35:49;;;;;;;14.07;7.75;;;15.70;99.90;;;;;;5033505;28;20032;-75
2023/05/27 03:38:15;;;;;;;17.73;7.70;;;15.60;99.90;;;;;;5050593;28;20060;-74
2023/05/27 03:40:41;;;;;;;23.55;7.75;;;15.70;99.90;;;;;;5034925;28;20037;-75
2023/05/27 03:43:07;;;;;;;16.98;7.72;;;15.70;99.90;;;;;;5034083;28;20037;-75
2023/05/27 03:45:33;;;;;;;18.35;7.13;;;15.70;99.90;;;;;;5033167;28;20482;-75
2023/05/27 03:47:59;;;;;;;18.63;7.43;;;15.80;99.90;;;;;;5045144;28;20048;-74
2023/05/27 03:50:26;;;;;;;18.83;7.80;;;15.70;99.90;;;;;;5050709;28;20040;-74
2023/05/27 03:52:52;;;;;;;16.88;7.32;;;15.70;99.90;;;;;;5033828;28;20022;-75
2023/05/27 03:55:20;;;;;;;21.45;7.93;;;15.70;99.90;;;;;;5033914;28;20040;-75
2023/05/27 03:57:46;;;;;;;14.30;7.50;;;15.60;99.90;;;;;;5034854;28;20046;-75
2023/05/27 04:00:13;;;;;;;17.13;7.55;;;15.60;99.90;;;;;;5034436;28;20029;-74
2023/05/27 04:02:40;;;;;;;20.85;8.18;;;15.50;99.90;;;;;;5033209;28;20670;-75
2023/05/27 04:05:06;;;;;;;15.30;7.97;;;15.60;99.90;;;;;;5033463;28;20044;-75
2023/05/27 04:07:32;;;;;;;19.33;7.05;;;15.70;99.90;;;;;;5034539;28;20375;-75
2023/05/27 04:09:58;;;;;;;14.90;7.10;;;15.60;99.90;;;;;;5033609;28;20029;-75
2023/05/27 04:12:24;;;;;;;20.73;8.07;;;15.60;99.90;;;;;;5033149;28;20033;-75
2023/05/27 04:14:50;;;;;;;14.38;7.30;;;15.60;99.90;;;;;;5016753;28;20045;-74
2023/05/27 04:17:17;;;;;;;18.85;7.65;;;15.60;99.90;;;;;;5032952;28;20041;-75
2023/05/27 04:19:43;;;;;;;14.52;7.63;;;15.50;99.90;;;;;;5032843;28;20037;-75
2023/05/27 04:22:09;;;;;;;17.20;7.93;;;15.60;99.90;;;;;;5033127;28;20029;-75
2023/05/27 04:24:35;;;;;;;16.20;7.55;;;15.60;99.90;;;;;;5034410;28;20033;-75
2023/05/27 04:27:02;;;;;;;17.48;7.65;;;15.60;99.90;;;;;;5016099;28;20410;-75
2023/05/27 04:29:28;;;;;;;16.52;6.90;;;15.50;99.90;;;;;;5033157;28;20025;-75
2023/05/27 04:31:56;;;;;;;17.92;7.30;;;15.50;99.90;;;;;;5032409;28;20402;-74
2023/05/27 04:34:22;;;;;;;14.00;7.35;;;15.50;99.90;;;;;;5031140;28;20033;-75
2023/05/27 04:36:51;;;;;;;20.63;7.53;;;15.40;99.90;;;;;;5015621;28;20048;-75
2023/05/27 04:39:17;;;;;;;16.27;7.07;;;15.40;99.90;;;;;;5034069;28;20547;-75
2023/05/27 04:41:44;;;;;;;16.75;7.72;;;15.40;99.90;;;;;;5032542;28;20029;-75
2023/05/27 04:44:11;;;;;;;17.67;7.00;;;15.30;99.90;;;;;;5033070;28;20037;-75
2023/05/27 04:46:38;;;;;;;21.58;7.22;;;15.30;99.90;;;;;;5032176;28;20045;-75
2023/05/27 04:49:05;;;;;;;13.68;6.80;;;15.20;99.90;;;;;;5052323;28;20370;-75
2023/05/27 04:51:31;;;;;;;15.73;6.90;;;15.20;99.90;;;;;;5041123;28;20036;-75
2023/05/27 04:53:57;;;;;;;20.05;7.43;;;15.10;99.90;;;;;;5033865;28;20029;-75
2023/05/27 04:56:24;;;;;;;16.13;7.32;;;15.20;99.90;;;;;;5033527;28;20395;-75
2023/05/27 04:58:50;;;;;;;16.27;6.70;;;15.20;99.90;;;;;;5015495;28;20045;-74
2023/05/27 05:01:17;;;;;;;17.35;7.07;;;15.20;99.90;;;;;;5032990;28;20036;-75
2023/05/27 05:04:02;;;;;;;20.98;6.60;;;15.10;99.90;;;;;;5032179;28;20036;-75
2023/05/27 05:06:28;;;;;;;17.38;6.55;;;15.20;99.90;;;;;;5032477;28;20033;-75
2023/05/27 05:08:54;;;;;;;20.52;7.10;;;15.20;99.90;;;;;;5032320;28;20030;-75
2023/05/27 05:11:21;;;;;;;17.77;6.80;;;15.30;99.90;;;;;;5031861;28;20042;-75
2023/05/27 05:13:47;;;;;;;14.27;6.68;;;15.30;99.90;;;;;;5032346;28;20030;-76
2023/05/27 05:16:13;;;;;;;15.48;6.93;;;15.40;99.90;;;;;;5031285;28;20042;-75
2023/05/27 05:18:39;;;;;;;13.10;6.20;;;15.30;99.90;;;;;;5033202;28;20052;-74
2023/05/27 05:21:05;;;;;;;16.30;6.47;;;15.50;99.90;;;;;;5032988;28;20052;-75
2023/05/27 05:23:32;;;;;;;13.70;7.13;;;15.50;99.90;;;;;;5033203;28;20029;-74
2023/05/27 05:25:58;;;;;;;15.80;6.70;;;15.50;99.90;;;;;;5031680;28;20041;-74
2023/05/27 05:28:24;;;;;;;18.38;6.68;;;15.60;99.90;;;;;;5032047;28;20032;-75
2023/05/27 05:30:51;;;;;;;11.43;6.15;;;15.70;99.90;;;;;;5031204;28;20039;-75
2023/05/27 05:33:17;;;;;;;21.35;7.50;;;15.90;99.90;;;;;;5032792;28;20033;-75
2023/05/27 05:35:43;;;;;;;15.73;7.10;;;16.00;99.90;;;;;;5014583;28;20046;-75
2023/05/27 05:38:09;;;;;;;15.15;7.10;;;16.00;99.90;;;;;;5031933;28;20048;-75
2023/05/27 05:40:35;;;;;;;21.50;7.00;;;16.20;99.90;;;;;;5032680;28;20486;-76
2023/05/27 05:43:01;;;;;;;14.10;7.25;;;16.20;99.90;;;;;;5031779;28;20038;-75
2023/05/27 05:45:27;;;;;;;16.52;7.65;;;16.30;99.90;;;;;;5030158;28;20493;-75
2023/05/27 05:47:53;;;;;;;13.05;7.53;;;16.30;99.90;;;;;;5041317;28;20037;-75
2023/05/27 05:50:19;;;;;;;12.50;6.93;;;16.30;99.90;;;;;;5066032;28;20041;-75
2023/05/27 05:52:45;;;;;;;16.08;7.10;;;16.30;99.90;;;;;;5031111;28;20045;-75
2023/05/27 05:55:11;;;;;;;16.17;7.10;;;16.50;99.90;;;;;;5031381;28;20048;-75
2023/05/27 05:57:38;;;;;;;18.77;7.97;;;16.60;99.90;;;;;;5031623;28;20390;-75
2023/05/27 06:00:05;;;;;;;16.00;7.38;;;16.70;99.90;;;;;;5031990;28;20037;-74
2023/05/27 06:02:31;;;;;;;14.80;7.80;;;16.80;99.90;;;;;;5031918;28;20478;-75
2023/05/27 06:04:57;;;;;;;14.80;7.90;;;16.90;99.90;;;;;;5031423;28;20037;-75
2023/05/27 06:07:23;;;;;;;14.85;7.50;;;17.00;99.90;;;;;;5031114;28;20471;-75
2023/05/27 06:09:49;;;;;;;15.00;7.25;;;17.00;99.90;;;;;;5031320;28;20044;-75
2023/05/27 06:12:15;;;;;;;20.38;8.02;;;16.90;99.90;;;;;;5032159;28;20459;-75
2023/05/27 06:14:42;;;;;;;15.23;7.18;;;17.00;99.90;;;;;;5032453;28;20040;-75
2023/05/27 06:17:08;;;;;;;20.13;7.82;;;17.10;99.90;;;;;;5031760;28;20029;-75
2023/05/27 06:19:34;;;;;;;15.82;7.43;;;17.20;99.90;;;;;;5032247;28;20056;-75
2023/05/27 06:22:00;;;;;;;16.67;7.15;;;17.10;99.90;;;;;;5032066;28;20029;-76
2023/05/27 06:24:26;;;;;;;10.98;6.70;;;17.20;99.90;;;;;;5032499;28;20100;-75
2023/05/27 06:26:52;;;;;;;17.83;7.35;;;17.20;99.90;;;;;;5032024;28;20040;-75
2023/05/27 06:29:18;;;;;;;11.18;6.90;;;17.30;99.90;;;;;;5032069;28;20034;-74
2023/05/27 06:31:46;;;;;;;17.83;7.88;;;17.40;99.90;;;;;;5030156;28;20022;-75
2023/05/27 06:34:12;;;;;;;18.90;7.97;;;17.40;99.90;;;;;;5032099;28;20033;-75
2023/05/27 06:36:38;;;;;;;16.48;8.05;;;17.60;99.90;;;;;;5030746;28;20028;-75
2023/05/27 06:39:04;;;;;;;14.85;7.80;;;17.70;99.90;;;;;;5030398;28;20038;-76
2023/05/27 06:41:30;;;;;;;16.08;7.82;;;17.80;99.90;;;;;;5031803;28;20036;-76
2023/05/27 06:43:56;;;;;;;14.52;7.65;;;17.90;99.90;;;;;;5030817;28;20048;-75
2023/05/27 06:46:22;;;;;;;15.77;8.02;;;18.00;99.90;;;;;;5012930;28;20049;-75
2023/05/27 06:48:48;;;;;;;19.63;7.88;;;18.00;99.90;;;;;;5031982;28;20049;-76
2023/05/27 06:51:15;;;;;;;19.38;8.40;;;18.10;99.90;;;;;;5042749;28;20351;-75
2023/05/27 06:53:41;;;;;;;17.38;8.48;;;18.20;99.90;;;;;;5030369;28;20052;-75
2023/05/27 06:56:07;;;;;;;14.77;8.38;;;18.40;99.90;;;;;;5031731;28;20025;-75
2023/05/27 06:58:33;;;;;;;19.25;8.27;;;18.60;99.90;;;;;;5033754;28;20030;-75
2023/05/27 07:00:59;;;;;;;15.00;8.00;;;18.40;99.90;;;;;;5017208;28;20529;-75
2023/05/27 07:03:25;;;;;;;13.52;7.63;;;18.50;99.90;;;;;;5018150;28;20052;-75
2023/05/27 07:05:51;;;;;;;22.85;8.93;;;18.80;99.90;;;;;;5034603;28;20470;-75
2023/05/27 07:08:17;;;;;;;19.90;8.32;;;18.80;99.90;;;;;;5034703;28;20037;-74
2023/05/27 07:10:43;;;;;;;17.75;8.00;;;18.80;99.90;;;;;;5034253;28;20501;-74
2023/05/27 07:13:10;;;;;;;15.95;9.10;;;18.80;99.90;;;;;;5035499;28;20034;-75
2023/05/27 07:15:36;;;;;;;17.63;9.63;;;18.90;99.90;;;;;;5034737;28;20033;-75
2023/05/27 07:18:02;;;;;;;18.15;9.15;;;18.90;99.90;;;;;;5035627;28;20041;-75
2023/05/27 07:20:28;;;;;;;15.20;9.23;;;19.00;99.90;;;;;;5033910;28;20474;-75
2023/05/27 07:22:54;;;;;;;19.52;9.27;;;19.10;99.90;;;;;;5034518;28;20041;-75
2023/05/27 07:25:20;;;;;;;17.20;9.48;;;19.20;99.90;;;;;;5035233;28;20463;-75
2023/05/27 07:27:46;;;;;;;14.98;8.30;;;19.40;99.90;;;;;;5035157;28;20455;-75
2023/05/27 07:30:13;;;;;;;16.25;9.10;;;19.40;99.90;;;;;;5032928;28;20048;-75
2023/05/27 07:32:39;;;;;;;17.17;8.52;;;19.60;99.90;;;;;;5033808;28;20033;-75
2023/05/27 07:35:05;;;;;;;18.33;8.38;;;19.70;99.90;;;;;;5034169;28;20034;-74
2023/05/27 07:37:32;;;;;;;17.95;8.43;;;19.70;99.90;;;;;;5033595;28;20025;-75
2023/05/27 07:39:58;;;;;;;16.70;7.93;;;19.80;99.90;;;;;;5034062;28;20386;-75
2023/05/27 07:42:24;;;;;;;16.63;8.98;;;19.80;99.90;;;;;;5033467;28;20026;-75
2023/05/27 07:44:50;;;;;;;17.67;8.80;;;19.80;99.90;;;;;;5033967;28;20026;-75
2023/05/27 07:47:16;;;;;;;18.38;8.55;;;20.00;99.90;;;;;;5039570;28;20437;-75
2023/05/27 07:49:42;;;;;;;14.80;8.23;;;20.30;99.90;;;;;;5054912;28;20033;-75
2023/05/27 07:52:08;;;;;;;18.75;8.40;;;20.60;99.90;;;;;;5038390;28;20036;-75
2023/05/27 07:54:34;;;;;;;13.30;8.32;;;20.60;99.90;;;;;;5033172;28;20037;-75
2023/05/27 07:57:00;;;;;;;16.25;7.68;;;20.60;99.90;;;;;;5034336;28;20036;-76
2023/05/27 07:59:27;;;;;;;14.32;8.15;;;20.60;99.90;;;;;;5033595;28;20025;-75
2023/05/27 08:01:53;;;;;;;19.85;8.45;;;20.60;99.90;;;;;;5032933;28;20041;-76
2023/05/27 08:04:19;;;;;;;13.05;8.13;;;20.80;99.90;;;;;;5033379;28;20494;-75
2023/05/27 08:06:45;;;;;;;18.58;8.48;;;20.80;99.90;;;;;;5033153;28;20034;-75
2023/05/27 08:09:11;;;;;;;14.88;9.30;;;21.10;99.90;;;;;;5016883;28;20033;-75
2023/05/27 08:11:37;;;;;;;18.38;9.43;;;21.20;99.90;;;;;;5033975;28;20037;-75
2023/05/27 08:14:03;;;;;;;17.67;9.00;;;21.30;99.90;;;;;;5034624;28;20032;-75
2023/05/27 08:16:29;;;;;;;18.15;8.88;;;21.60;99.90;;;;;;5032684;28;20414;-75
2023/05/27 08:18:55;;;;;;;15.00;9.57;;;21.60;99.90;;;;;;5032736;28;20029;-75
2023/05/27 08:21:21;;;;;;;14.35;9.23;;;21.80;99.90;;;;;;5032916;28;20383;-74
2023/05/27 08:23:48;;;;;;;15.77;9.55;;;21.90;99.90;;;;;;5033342;28;20025;-75
2023/05/27 08:26:14;;;;;;;14.60;9.18;;;21.80;99.90;;;;;;5032655;28;20037;-75
2023/05/27 08:28:41;;;;;;;16.10;9.82;;;21.90;99.90;;;;;;5034248;28;20036;-75
2023/05/27 08:31:07;;;;;;;15.82;10.70;;;22.00;99.90;;;;;;5033609;28;20517;-75
2023/05/27 08:33:33;;;;;;;10.75;9.35;;;22.10;99.90;;;;;;5033105;28;20033;-75
2023/05/27 08:35:59;;;;;;;15.52;9.57;;;22.10;99.90;;;;;;5033844;28;20029;-75
2023/05/27 08:38:25;;;;;;;15.40;10.15;;;22.20;99.90;;;;;;5034124;28;20029;-75
2023/05/27 08:40:52;;;;;;;14.35;10.73;;;22.40;99.90;;;;;;5033510;28;20046;-75
2023/05/27 08:43:18;;;;;;;14.98;11.07;;;22.60;99.90;;;;;;5034557;28;20373;-75
2023/05/27 08:45:44;;;;;;;16.58;9.75;;;22.70;99.90;;;;;;5033372;28;20486;-75
2023/05/27 08:48:11;;;;;;;15.00;9.98;;;22.60;99.90;;;;;;5045733;28;20037;-75
2023/05/27 08:50:37;;;;;;;17.13;9.75;;;22.60;99.90;;;;;;5048598;28;20033;-75
2023/05/27 08:53:03;;;;;;;15.90;9.70;;;22.60;99.90;;;;;;5032689;28;20037;-75
2023/05/27 08:55:30;;;;;;;17.30;11.68;;;22.60;99.90;;;;;;5033352;28;20041;-75
2023/05/27 08:57:57;;;;;;;15.70;10.00;;;22.60;99.90;;;;;;5016501;28;20382;-75
2023/05/27 09:00:23;;;;;;;17.20;11.10;;;22.70;99.90;;;;;;5031567;28;20033;-75
2023/05/27 09:02:49;;;;;;;13.23;11.15;;;22.90;99.90;;;;;;5016163;28;20029;-75
2023/05/27 09:05:16;;;;;;;15.02;12.10;;;22.90;99.90;;;;;;5015878;28;20021;-75
2023/05/27 09:07:42;;;;;;;17.52;14.13;;;23.10;99.90;;;;;;5033642;28;20041;-74
2023/05/27 09:10:08;;;;;;;17.13;12.38;;;23.30;99.60;;;;;;5015650;28;20030;-76
2023/05/27 09:12:35;;;;;;;18.10;12.35;;;23.30;99.70;;;;;;5032387;28;20394;-75
2023/05/27 09:15:05;;;;;;;19.83;10.18;;;23.30;99.30;;;;;;5048833;28;20044;-75
2023/05/27 09:17:31;;;;;;;15.85;12.52;;;23.30;99.90;;;;;;5032295;28;20494;-74
2023/05/27 09:19:57;;;;;;;15.63;10.63;;;23.20;99.20;;;;;;5015504;28;20042;-75
2023/05/27 09:22:29;;;;;;;16.15;11.85;;;23.10;99.90;;;;;;5031464;28;20029;-76
2023/05/27 09:24:56;;;;;;;16.92;11.80;;;23.40;99.80;;;;;;5015534;28;20026;-75
2023/05/27 09:27:29;;;;;;;14.48;12.20;;;23.50;99.30;;;;;;5031823;28;20026;-75
2023/05/27 09:29:55;;;;;;;17.02;13.48;;;23.60;99.50;;;;;;5031953;28;20025;-76
2023/05/27 09:32:28;;;;;;;17.65;12.48;;;23.90;99.10;;;;;;5031165;28;20041;-75
2023/05/27 09:34:58;;;;;;;18.23;12.85;;;24.10;99.30;;;;;;5033207;28;20045;-75
2023/05/27 09:37:32;;;;;;;16.13;12.43;;;24.30;98.40;;;;;;5031630;28;20029;-75
2023/05/27 09:39:59;;;;;;;16.17;13.23;;;24.00;98.40;;;;;;5015473;28;20383;-75
2023/05/27 09:42:25;;;;;;;18.65;13.10;;;24.10;98.50;;;;;;5030055;28;20506;-75
2023/05/27 09:44:52;;;;;;;14.90;13.20;;;24.20;98.60;;;;;;5032857;28;20466;-76
2023/05/27 09:47:20;;;;;;;17.73;13.98;;;24.30;98.10;;;;;;5033889;28;20049;-75
2023/05/27 09:49:46;;;;;;;21.08;11.70;;;24.30;98.10;;;;;;5051461;28;20036;-75
2023/05/27 09:52:13;;;;;;;16.30;12.98;;;24.50;98.50;;;;;;5034233;28;20026;-75
2023/05/27 09:54:39;;;;;;;16.20;12.55;;;24.50;97.10;;;;;;5015525;28;20040;-75
2023/05/27 09:57:06;;;;;;;14.73;13.02;;;24.60;98.10;;;;;;5030960;28;20021;-75
2023/05/27 09:59:32;;;;;;;17.70;13.57;;;24.60;97.90;;;;;;5014738;28;20032;-75
2023/05/27 10:02:02;;;;;;;17.90;13.35;;;24.60;97.30;;;;;;5030741;28;20045;-75
2023/05/27 10:04:29;;;;;;;19.10;12.90;;;24.60;97.50;;;;;;5031270;28;20030;-75
2023/05/27 10:06:57;;;;;;;15.88;13.73;;;24.80;97.60;;;;;;5014580;28;20021;-75
2023/05/27 10:09:23;;;;;;;17.33;13.68;;;24.80;97.10;;;;;;5014905;28;20355;-74
2023/05/27 10:11:49;;;;;;;14.82;13.25;;;24.90;97.20;;;;;;5030643;28;20033;-75
2023/05/27 10:14:16;;;;;;;14.93;13.55;;;24.80;97.00;;;;;;5031015;28;20036;-74
2023/05/27 10:16:55;;;;;;;14.43;12.63;;;24.80;96.60;;;;;;5029519;28;20042;-74
2023/05/27 10:19:21;;;;;;;16.35;13.60;;;24.90;97.30;;;;;;5015253;28;20021;-75
2023/05/27 10:21:47;;;;;;;20.48;13.57;;;24.90;96.70;;;;;;5030455;28;20049;-75
2023/05/27 10:24:13;;;;;;;15.40;13.80;;;25.00;97.30;;;;;;5032266;28;20025;-75
2023/05/27 10:26:40;;;;;;;14.75;13.23;;;25.20;96.20;;;;;;5030854;28;20503;-74
2023/05/27 10:29:17;;;;;;;15.68;14.15;;;25.30;97.50;;;;;;5030311;28;20037;-75
2023/05/27 10:32:01;;;;;;;17.25;15.63;;;25.40;95.30;;;;;;5013535;28;20029;-75
2023/05/27 10:34:37;;;;;;;15.98;14.32;;;25.40;94.80;;;;;;5013795;28;20478;-75
2023/05/27 10:37:03;;;;;;;17.27;15.02;;;25.40;95.50;;;;;;5030986;28;20041;-75
2023/05/27 10:39:29;;;;;;;16.70;15.00;;;25.60;95.20;;;;;;5014463;28;20026;-75
2023/05/27 10:41:56;;;;;;;16.92;15.35;;;25.80;95.00;;;;;;5030499;28;20045;-75
2023/05/27 10:44:27;;;;;;;16.58;14.77;;;25.70;94.60;;;;;;5030367;28;20029;-75
2023/05/27 10:47:00;;;;;;;16.13;14.25;;;25.80;94.00;;;;;;5031390;28;20488;-75
2023/05/27 10:49:35;;;;;;;18.13;15.55;;;25.70;94.30;;;;;;5050794;28;20496;-74
2023/05/27 10:52:12;;;;;;;15.55;13.95;;;25.80;94.40;;;;;;5034735;28;20033;-73
2023/05/27 10:54:38;;;;;;;15.70;14.20;;;26.00;94.30;;;;;;5030882;28;20025;-75
2023/05/27 10:57:06;;;;;;;16.83;15.23;;;26.00;94.00;;;;;;5014223;28;20032;-75
2023/05/27 10:59:49;;;;;;;17.05;15.27;;;26.10;94.10;;;;;;5030675;28;20037;-75
2023/05/27 11:02:16;;;;;;;17.30;15.57;;;26.20;94.00;;;;;;5014164;28;20042;-75
2023/05/27 11:04:42;;;;;;;15.90;14.63;;;26.20;93.70;;;;;;5030871;28;20639;-75
2023/05/27 11:07:08;;;;;;;17.67;15.73;;;26.10;93.90;;;;;;5046651;28;20096;-75
2023/05/27 11:09:47;;;;;;;15.98;14.60;;;26.10;94.20;;;;;;5031874;28;20378;-75
2023/05/27 11:12:17;;;;;;;17.15;15.50;;;26.20;93.80;;;;;;5030497;28;20119;-75
2023/05/27 11:14:44;;;;;;;16.20;14.80;;;26.30;92.90;;;;;;5014522;28;20370;-75
2023/05/27 11:17:14;;;;;;;16.65;15.13;;;26.20;93.40;;;;;;5013648;28;20045;-75
2023/05/27 11:19:40;;;;;;;15.85;14.50;;;26.20;93.20;;;;;;5014192;28;20497;-75
2023/05/27 11:22:10;;;;;;;17.40;15.60;;;26.10;93.30;;;;;;5030369;28;20069;-75
2023/05/27 11:24:39;;;;;;;16.85;15.50;;;26.20;94.00;;;;;;5014328;28;20386;-75
2023/05/27 11:27:13;;;;;;;17.58;15.95;;;26.30;94.30;;;;;;5030235;28;20462;-75
2023/05/27 11:29:39;;;;;;;16.50;15.10;;;26.60;93.80;;;;;;5030083;28;20081;-75
2023/05/27 11:32:05;;;;;;;16.92;15.38;;;26.50;93.40;;;;;;5030887;28;20021;-75
2023/05/27 11:34:34;;;;;;;16.00;14.55;;;26.40;93.10;;;;;;5030204;28;20037;-75
2023/05/27 11:37:07;;;;;;;17.40;15.68;;;26.50;92.80;;;;;;5030145;28;20033;-75
2023/05/27 11:39:33;;;;;;;16.50;14.80;;;26.50;93.10;;;;;;5030691;28;20030;-74
2023/05/27 11:41:59;;;;;;;17.35;15.85;;;26.60;92.90;;;;;;5041695;28;20498;-75
2023/05/27 11:44:25;;;;;;;17.05;15.32;;;26.50;92.70;;;;;;5031972;28;20030;-75
2023/05/27 11:46:57;;;;;;;16.40;14.93;;;26.50;93.30;;;;;;5034801;28;20060;-75
2023/05/27 11:49:23;;;;;;;17.80;16.08;;;26.60;94.00;;;;;;5053573;28;20021;-75
2023/05/27 11:51:50;;;;;;;15.98;14.65;;;26.70;92.90;;;;;;5039747;28;20034;-76
2023/05/27 11:54:22;;;;;;;17.05;15.32;;;26.80;92.40;;;;;;5017400;28;20022;-75
2023/05/27 11:56:49;;;;;;;14.85;13.57;;;26.70;93.00;;;;;;5017076;28;20037;-74
2023/05/27 11:59:15;;;;;;;15.63;14.10;;;26.60;93.10;;;;;;5034820;28;20025;-75
2023/05/27 12:01:42;;;;;;;17.13;15.43;;;26.70;92.90;;;;;;5016427;28;20414;-74
2023/05/27 12:04:08;;;;;;;15.57;14.32;;;26.90;93.40;;;;;;5033261;28;20034;-75
2023/05/27 12:06:35;;;;;;;18.10;16.40;;;26.90;93.20;;;;;;5034600;28;20038;-75
2023/05/27 12:09:03;;;;;;;15.80;14.48;;;27.00;93.10;;;;;;5034662;28;20082;-75
2023/05/27 12:11:29;;;;;;;16.88;15.18;;;26.80;92.90;;;;;;5034431;28;20025;-75
2023/05/27 12:13:55;;;;;;;16.88;15.27;;;26.70;92.60;;;;;;5017270;28;20032;-75
2023/05/27 12:16:21;;;;;;;16.52;14.65;;;26.80;92.70;;;;;;5032694;28;20033;-75
2023/05/27 12:18:47;;;;;;;17.58;14.75;;;26.90;93.00;;;;;;5033041;28;20030;-75
2023/05/27 12:21:15;;;;;;;16.45;15.07;;;27.00;93.10;;;;;;5033112;28;20048;-75
2023/05/27 12:23:41;;;;;;;20.58;15.50;;;26.90;92.60;;;;;;5017024;28;20021;-75
2023/05/27 12:26:07;;;;;;;16.55;15.20;;;27.00;92.90;;;;;;5032953;28;20037;-75
2023/05/27 12:28:33;;;;;;;17.05;15.52;;;27.10;92.80;;;;;;5033324;28;20036;-75
2023/05/27 12:31:00;;;;;;;15.45;14.05;;;27.10;92.50;;;;;;5033616;28;20045;-75